Time;durP1;ratioP1;P1;durP2;ratioP2;P2;SDS_P1;SDS_P2;PMS_P1;PMS_P2;Temp;Humidity;BMP_temperature;BMP_pressure;BME280_temperature;BME280_humidity;BME280_pressure;Samples;Min_cycle;Max_cycle;Signal;HPM_P1;HPM_P2
2023/09/24 00:02:19;;;;;;;6.40;2.60;;;;;;;11.93;99.90;100088.23;109385;1253;57314;-65
2023/09/24 00:05:07;;;;;;;7.40;2.70;;;;;;;11.97;100.00;100085.69;109517;1252;61035;-65
2023/09/24 00:07:53;;;;;;;8.60;2.50;;;;;;;12.00;99.89;100089.30;109546;1252;74007;-66
2023/09/24 00:10:40;;;;;;;6.50;2.50;;;;;;;12.03;99.92;100097.02;109413;1252;66581;-66
2023/09/24 00:13:26;;;;;;;7.30;2.40;;;;;;;12.06;99.53;100098.58;109513;1252;71398;-66
2023/09/24 00:16:13;;;;;;;8.80;2.70;;;;;;;12.08;99.25;100107.97;109433;1252;59619;-66
2023/09/24 00:19:02;;;;;;;8.80;2.80;;;;;;;12.10;99.08;100113.73;109248;1252;61312;-65
2023/09/24 00:21:49;;;;;;;7.30;2.50;;;;;;;12.12;98.93;100115.66;109434;1253;72710;-66
2023/09/24 00:24:35;;;;;;;6.40;2.40;;;;;;;12.13;98.89;100111.69;109563;1253;66633;-66
2023/09/24 00:27:22;;;;;;;7.80;2.40;;;;;;;12.13;98.59;100118.98;109359;1253;71125;-65
2023/09/24 00:30:13;;;;;;;6.20;2.60;;;;;;;12.13;98.75;100120.73;109468;1253;57931;-65
2023/09/24 00:32:59;;;;;;;7.00;2.60;;;;;;;12.13;98.80;100130.17;109337;1252;58748;-64
2023/09/24 00:35:49;;;;;;;6.90;2.60;;;;;;;12.13;98.83;100130.04;109401;1253;74137;-66
2023/09/24 00:38:37;;;;;;;7.20;2.80;;;;;;;12.13;98.87;100135.89;109606;1252;68793;-66
2023/09/24 00:41:24;;;;;;;5.90;2.50;;;;;;;12.13;98.71;100138.52;109532;1252;71878;-66
2023/09/24 00:44:13;;;;;;;9.20;2.80;;;;;;;12.13;98.49;100134.80;109554;1253;59456;-65
2023/09/24 00:46:59;;;;;;;6.70;2.60;;;;;;;12.14;98.44;100132.94;109531;1253;60073;-66
2023/09/24 00:49:46;;;;;;;7.10;2.20;;;;;;;12.14;98.25;100134.23;109582;1252;71818;-65
2023/09/24 00:52:32;;;;;;;5.80;2.10;;;;;;;12.12;98.41;100138.06;109555;1252;66278;-66
2023/09/24 00:55:19;;;;;;;7.90;2.70;;;;;;;12.11;98.32;100146.02;109503;1252;72476;-66
2023/09/24 00:58:05;;;;;;;6.30;2.10;;;;;;;12.08;98.55;100151.02;109380;1252;59034;-66
2023/09/24 01:00:54;;;;;;;7.40;2.50;;;;;;;12.06;98.56;100150.86;109544;1252;58696;-66
2023/09/24 01:03:40;;;;;;;7.80;2.50;;;;;;;12.03;98.70;100151.25;109558;1252;72950;-67
2023/09/24 01:06:29;;;;;;;6.90;2.50;;;;;;;12.01;98.94;100156.40;109415;1253;65824;-67
2023/09/24 01:09:17;;;;;;;6.80;2.50;;;;;;;11.98;98.99;100157.69;109369;1253;71521;-67
2023/09/24 01:12:03;;;;;;;6.60;2.50;;;;;;;11.98;99.01;100157.75;109337;1252;58486;-66
2023/09/24 01:14:50;;;;;;;6.30;2.50;;;;;;;11.95;99.27;100161.52;109445;1252;59984;-65
2023/09/24 01:17:37;;;;;;;6.30;2.30;;;;;;;11.93;99.26;100169.99;109564;1252;73082;-65
2023/09/24 01:20:26;;;;;;;8.00;2.10;;;;;;;11.91;99.55;100169.27;109544;1252;67808;-66
2023/09/24 01:23:14;;;;;;;8.10;2.20;;;;;;;11.90;99.55;100163.33;109468;1253;71561;-65
2023/09/24 01:26:00;;;;;;;7.20;2.50;;;;;;;11.88;99.57;100164.89;109366;1253;57471;-64
2023/09/24 01:28:47;;;;;;;6.90;2.60;;;;;;;11.85;99.60;100164.60;109386;1253;61037;-64
2023/09/24 01:31:33;;;;;;;6.90;2.60;;;;;;;11.84;99.91;100168.25;109406;1253;73128;-65
2023/09/24 01:34:23;;;;;;;7.30;3.30;;;;;;;11.80;99.93;100161.68;109533;1252;67771;-65
2023/09/24 01:37:09;;;;;;;6.50;2.70;;;;;;;11.81;99.98;100170.66;109369;1253;72633;-64
2023/09/24 01:39:56;;;;;;;6.50;2.50;;;;;;;11.77;100.00;100178.75;109311;1253;58224;-65
2023/09/24 01:42:42;;;;;;;7.40;2.50;;;;;;;11.74;100.00;100178.27;109540;1252;61160;-65
2023/09/24 01:45:28;;;;;;;6.30;2.60;;;;;;;11.73;100.00;100180.39;109539;1252;73013;-66
2023/09/24 01:48:18;;;;;;;6.80;2.60;;;;;;;11.70;100.00;100186.25;109554;1252;68896;-66
2023/09/24 01:51:07;;;;;;;6.10;2.10;;;;;;;11.68;100.00;100185.39;109273;1252;73541;-66
2023/09/24 01:53:54;;;;;;;7.60;2.70;;;;;;;11.67;100.00;100184.95;109335;1253;59210;-65
2023/09/24 01:56:40;;;;;;;7.50;2.70;;;;;;;11.66;100.00;100186.11;109536;1253;61138;-65
2023/09/24 01:59:27;;;;;;;7.00;2.80;;;;;;;11.65;100.00;100184.88;109354;1253;72717;-65
2023/09/24 02:02:13;;;;;;;6.80;2.60;;;;;;;11.65;100.00;100189.66;109298;1252;67876;-65
2023/09/24 02:06:29;;;;;;;7.60;2.70;;;;;;;11.67;100.00;100190.82;103854;1292;600147;-69
2023/09/24 02:09:18;;;;;;;6.80;2.50;;;;;;;11.63;100.00;100190.41;105064;1270;59270;-66
2023/09/24 02:12:08;;;;;;;7.20;2.80;;;;;;;11.62;100.00;100191.21;105135;1266;60906;-66
2023/09/24 02:14:56;;;;;;;6.80;3.20;;;;;;;11.59;100.00;100187.52;105028;1267;70864;-65
2023/09/24 02:17:47;;;;;;;8.70;2.90;;;;;;;11.57;100.00;100191.05;105121;1267;68378;-65
2023/09/24 02:20:36;;;;;;;7.10;3.10;;;;;;;11.53;100.00;100194.20;104977;1264;600964;-65
2023/09/24 02:23:25;;;;;;;7.50;2.90;;;;;;;11.50;100.00;100192.28;105359;1264;59285;-65
2023/09/24 02:26:13;;;;;;;8.70;3.30;;;;;;;11.48;100.00;100199.41;104998;1267;60738;-64
2023/09/24 02:29:03;;;;;;;8.10;2.80;;;;;;;11.46;100.00;100204.16;105206;1263;71114;-66
2023/09/24 02:31:52;;;;;;;7.30;2.90;;;;;;;11.44;100.00;100205.58;105927;1251;66605;-66
2023/09/24 02:34:40;;;;;;;7.20;3.10;;;;;;;11.42;100.00;100202.34;106043;1257;73382;-66
2023/09/24 02:37:30;;;;;;;5.80;2.20;;;;;;;11.40;100.00;100205.85;106163;1257;59323;-65
2023/09/24 02:40:27;;;;;;;7.80;2.80;;;;;;;11.38;100.00;100209.92;105790;1256;60854;-65
2023/09/24 02:43:15;;;;;;;7.80;3.50;;;;;;;11.36;100.00;100211.91;105901;1257;72717;-65
2023/09/24 02:46:05;;;;;;;8.70;3.40;;;;;;;11.32;100.00;100213.41;105670;1251;68483;-66
2023/09/24 02:48:53;;;;;;;7.40;3.00;;;;;;;11.29;100.00;100216.18;105919;1257;71151;-67
2023/09/24 02:51:42;;;;;;;7.50;2.90;;;;;;;11.26;100.00;100219.23;106035;1257;59371;-65
2023/09/24 02:54:30;;;;;;;6.80;3.20;;;;;;;11.23;100.00;100219.44;106040;1251;60724;-64
2023/09/24 02:57:18;;;;;;;9.00;3.30;;;;;;;11.21;100.00;100224.42;105956;1251;70409;-65
2023/09/24 03:00:13;;;;;;;7.50;3.50;;;;;;;11.18;100.00;100225.88;106014;1256;67318;-66
2023/09/24 03:03:09;;;;;;;8.40;3.40;;;;;;;11.16;100.00;100228.92;105908;1256;73046;-66
2023/09/24 03:05:57;;;;;;;6.90;3.10;;;;;;;11.13;100.00;100233.73;106245;1251;60148;-66
2023/09/24 03:08:49;;;;;;;10.10;3.60;;;;;;;11.11;100.00;100237.30;105837;1256;59802;-66
2023/09/24 03:11:37;;;;;;;6.70;3.50;;;;;;;11.08;100.00;100241.52;105961;1257;72557;-65
2023/09/24 03:14:42;;;;;;;7.50;3.20;;;;;;;11.06;100.00;100241.93;105811;1251;68282;-67
2023/09/24 03:17:30;;;;;;;8.60;3.50;;;;;;;11.04;100.00;100250.06;105784;1256;73923;-66
2023/09/24 03:20:19;;;;;;;8.90;3.30;;;;;;;11.02;100.00;100256.81;105991;1256;59327;-65
2023/09/24 03:23:10;;;;;;;6.40;2.70;;;;;;;10.99;100.00;100265.01;106028;1257;59721;-67
2023/09/24 03:25:57;;;;;;;8.10;3.20;;;;;;;10.96;100.00;100266.47;105611;1254;72012;-69
2023/09/24 03:28:50;;;;;;;8.20;3.40;;;;;;;10.94;100.00;100272.11;106043;1255;68278;-66
2023/09/24 03:31:40;;;;;;;11.00;3.90;;;;;;;10.91;100.00;100273.41;105816;1254;73042;-66
2023/09/24 03:34:31;;;;;;;7.40;3.40;;;;;;;10.89;100.00;100284.71;105973;1257;59949;-66
2023/09/24 03:37:19;;;;;;;8.60;3.50;;;;;;;10.87;100.00;100291.47;105793;1254;61849;-67
2023/09/24 03:40:11;;;;;;;9.50;3.00;;;;;;;10.85;100.00;100294.57;105784;1254;72224;-65
2023/09/24 03:42:59;;;;;;;7.80;3.50;;;;;;;10.84;100.00;100293.14;105584;1256;69534;-64
2023/09/24 03:45:48;;;;;;;8.60;3.40;;;;;;;10.81;100.00;100295.82;105809;1255;73539;-64
2023/09/24 03:48:37;;;;;;;8.20;3.40;;;;;;;10.80;100.00;100301.19;105862;1256;59932;-64
2023/09/24 03:51:25;;;;;;;8.40;3.70;;;;;;;10.80;100.00;100305.10;106002;1253;59941;-65
2023/09/24 03:54:13;;;;;;;7.80;3.00;;;;;;;10.78;100.00;100309.70;105752;1257;71183;-65
2023/09/24 03:57:01;;;;;;;7.80;3.60;;;;;;;10.76;100.00;100312.17;105944;1253;67011;-64
2023/09/24 03:59:50;;;;;;;7.10;3.40;;;;;;;10.74;100.00;100319.41;105731;1252;74312;-65
2023/09/24 04:02:39;;;;;;;8.10;3.60;;;;;;;10.72;100.00;100326.79;105880;1253;60127;-65
2023/09/24 04:05:30;;;;;;;8.20;3.20;;;;;;;10.71;100.00;100331.86;105634;1253;60965;-66
2023/09/24 04:08:18;;;;;;;7.60;3.10;;;;;;;10.70;100.00;100337.25;105566;1254;71750;-68
2023/09/24 04:11:12;;;;;;;8.30;3.40;;;;;;;10.69;100.00;100338.02;105860;1255;69505;-66
2023/09/24 04:14:00;;;;;;;7.30;3.50;;;;;;;10.69;100.00;100340.88;105601;1252;72094;-66
2023/09/24 04:16:49;;;;;;;8.10;3.20;;;;;;;10.70;100.00;100346.86;105831;1255;59951;-66
2023/09/24 04:19:36;;;;;;;8.40;3.20;;;;;;;10.70;100.00;100357.64;105441;1254;61827;-65
2023/09/24 04:22:25;;;;;;;9.10;3.70;;;;;;;10.71;100.00;100357.73;105981;1252;70767;-64
2023/09/24 04:25:14;;;;;;;7.00;3.20;;;;;;;10.71;100.00;100355.30;105863;1256;68451;-66
2023/09/24 04:28:03;;;;;;;7.40;2.60;;;;;;;10.71;100.00;100358.59;105906;1254;73942;-67
2023/09/24 04:30:51;;;;;;;6.90;3.80;;;;;;;10.73;100.00;100362.61;105692;1256;60123;-67
2023/09/24 04:33:41;;;;;;;8.60;3.50;;;;;;;10.73;100.00;100367.17;105776;1256;60545;-67
2023/09/24 04:36:30;;;;;;;10.50;3.20;;;;;;;10.75;100.00;100370.29;105771;1252;72835;-69
2023/09/24 04:39:19;;;;;;;7.40;3.40;;;;;;;10.75;100.00;100374.69;106139;1256;68397;-70
2023/09/24 04:42:08;;;;;;;7.90;3.20;;;;;;;10.76;100.00;100383.51;105926;1256;73926;-65
2023/09/24 04:44:56;;;;;;;8.30;3.50;;;;;;;10.77;100.00;100385.03;105803;1253;59330;-66
2023/09/24 04:47:43;;;;;;;8.40;3.60;;;;;;;10.78;100.00;100389.17;105938;1256;59531;-65
2023/09/24 04:50:32;;;;;;;7.40;3.00;;;;;;;10.81;100.00;100391.64;106048;1254;72885;-67
2023/09/24 04:53:21;;;;;;;9.20;3.50;;;;;;;10.78;100.00;100385.48;108152;1254;67591;-68
2023/09/24 04:56:10;;;;;;;8.10;3.30;;;;;;;10.88;100.00;100399.33;107924;1252;72087;-66
2023/09/24 04:58:59;;;;;;;6.80;3.30;;;;;;;10.95;100.00;100403.81;107403;1253;59129;-69
2023/09/24 05:01:47;;;;;;;8.90;3.80;;;;;;;11.00;100.00;100404.27;107380;1256;60664;-66
2023/09/24 05:04:35;;;;;;;8.30;3.50;;;;;;;11.06;100.00;100408.05;105716;1254;70815;-67
2023/09/24 05:07:24;;;;;;;7.30;3.60;;;;;;;11.14;100.00;100407.89;105768;1254;68349;-67
2023/09/24 05:10:12;;;;;;;8.80;3.50;;;;;;;11.21;100.00;100405.04;105935;1254;72107;-68
2023/09/24 05:13:00;;;;;;;8.60;3.60;;;;;;;11.28;100.00;100407.38;105701;1256;59953;-67
2023/09/24 05:15:59;;;;;;;7.10;3.30;;;;;;;11.35;100.00;100412.48;105900;1254;60808;-68
2023/09/24 05:18:47;;;;;;;8.60;3.50;;;;;;;11.43;100.00;100425.58;105975;1254;72831;-65
2023/09/24 05:21:36;;;;;;;8.20;3.60;;;;;;;11.52;100.00;100432.89;105940;1256;66966;-67
2023/09/24 05:24:24;;;;;;;7.60;3.60;;;;;;;11.62;100.00;100436.77;105955;1256;74225;-64
2023/09/24 05:27:12;;;;;;;9.90;3.50;;;;;;;11.70;100.00;100442.70;106048;1255;60119;-65
2023/09/24 05:30:01;;;;;;;7.70;3.60;;;;;;;11.79;100.00;100442.39;106051;1253;59801;-66
2023/09/24 05:32:49;;;;;;;9.50;3.70;;;;;;;11.89;100.00;100451.98;105884;1254;70781;-66
2023/09/24 05:35:38;;;;;;;10.40;3.80;;;;;;;11.99;100.00;100454.96;105925;1253;68407;-67
2023/09/24 05:38:27;;;;;;;9.90;3.60;;;;;;;12.09;100.00;100458.11;105779;1254;72151;-67
2023/09/24 05:41:16;;;;;;;8.00;3.30;;;;;;;12.17;100.00;100459.95;105868;1256;59335;-66
2023/09/24 05:44:05;;;;;;;8.00;3.20;;;;;;;12.27;100.00;100465.06;105554;1259;60091;-65
2023/09/24 05:46:53;;;;;;;8.50;3.40;;;;;;;12.39;100.00;100465.73;106023;1253;72094;-68
2023/09/24 05:49:41;;;;;;;7.90;3.80;;;;;;;12.51;100.00;100466.95;105807;1254;69402;-65
2023/09/24 05:52:30;;;;;;;8.30;3.20;;;;;;;12.62;100.00;100467.09;105947;1254;73265;-66
2023/09/24 05:55:19;;;;;;;7.50;3.30;;;;;;;12.74;100.00;100466.90;105590;1257;59211;-66
2023/09/24 05:58:07;;;;;;;7.80;3.70;;;;;;;12.85;100.00;100472.59;105993;1253;61818;-67
2023/09/24 06:00:58;;;;;;;8.10;3.60;;;;;;;12.96;99.99;100472.57;106126;1254;72927;-68
2023/09/24 06:03:46;;;;;;;8.50;3.60;;;;;;;13.07;99.53;100479.57;105751;1252;67043;-67
2023/09/24 06:06:34;;;;;;;11.80;3.70;;;;;;;13.18;99.24;100480.24;105761;1254;74171;-68
2023/09/24 06:09:23;;;;;;;7.70;3.50;;;;;;;13.32;98.61;100477.70;105825;1254;59339;-67
2023/09/24 06:12:11;;;;;;;7.30;3.40;;;;;;;13.47;97.98;100476.96;105819;1256;60726;-68
2023/09/24 06:14:59;;;;;;;10.10;4.00;;;;;;;13.64;97.56;100477.04;105793;1253;70465;-67
2023/09/24 06:17:50;;;;;;;8.20;3.40;;;;;;;13.80;96.98;100487.40;105816;1253;69317;-66
2023/09/24 06:20:40;;;;;;;8.80;3.70;;;;;;;13.97;95.53;100492.80;105752;1254;72970;-66
2023/09/24 06:23:29;;;;;;;8.40;3.40;;;;;;;14.11;94.45;100496.92;105777;1254;60151;-67
2023/09/24 06:26:19;;;;;;;8.50;3.40;;;;;;;14.26;94.40;100503.68;105662;1253;59935;-68
2023/09/24 06:29:07;;;;;;;7.40;3.40;;;;;;;14.40;92.96;100502.12;105640;1254;71690;-69
2023/09/24 06:31:58;;;;;;;8.10;3.20;;;;;;;14.51;92.25;100500.06;105869;1256;66997;-66
2023/09/24 06:34:46;;;;;;;6.60;2.80;;;;;;;14.67;91.87;100500.91;105960;1254;73061;-67
2023/09/24 06:37:34;;;;;;;7.80;3.30;;;;;;;14.84;91.10;100499.78;105867;1254;59339;-70
2023/09/24 06:40:22;;;;;;;7.80;3.10;;;;;;;15.01;90.05;100507.71;105695;1257;59949;-67
2023/09/24 06:43:11;;;;;;;7.60;3.00;;;;;;;15.20;89.53;100508.54;105858;1254;70504;-67
2023/09/24 06:46:05;;;;;;;8.00;3.20;;;;;;;15.57;88.86;100516.55;105756;1257;68432;-65
2023/09/24 06:48:53;;;;;;;6.80;3.00;;;;;;;16.68;86.66;100516.63;105836;1257;72045;-65
2023/09/24 06:51:41;;;;;;;7.40;2.80;;;;;;;18.22;81.30;100517.71;106050;1256;59897;-69
2023/09/24 06:54:32;;;;;;;7.50;2.50;;;;;;;19.66;75.13;100523.30;105634;1253;60668;-69
2023/09/24 06:57:20;;;;;;;7.80;3.00;;;;;;;20.87;67.91;100525.46;105929;1253;71333;-70
2023/09/24 07:00:10;;;;;;;7.30;2.60;;;;;;;21.74;62.44;100530.08;105654;1256;68483;-66
2023/09/24 07:02:59;;;;;;;7.70;2.30;;;;;;;22.53;59.84;100538.68;105715;1257;73280;-70
2023/09/24 07:05:47;;;;;;;7.00;2.30;;;;;;;23.41;57.34;100543.41;106035;1256;59240;-71
2023/09/24 07:08:35;;;;;;;7.10;2.20;;;;;;;24.14;54.32;100547.23;105881;1253;60830;-69
2023/09/24 07:11:36;;;;;;;7.40;2.20;;;;;;;24.70;51.12;100545.65;105916;1252;71708;-68
2023/09/24 07:14:24;;;;;;;7.10;2.10;;;;;;;25.22;48.83;100548.61;105925;1254;66929;-67
2023/09/24 07:17:14;;;;;;;7.00;1.80;;;;;;;25.40;47.72;100547.45;106012;1256;71835;-66
2023/09/24 07:20:05;;;;;;;7.10;2.20;;;;;;;25.62;46.76;100547.09;105762;1253;59354;-68
2023/09/24 07:22:53;;;;;;;6.20;2.00;;;;;;;25.99;46.57;100551.20;105831;1255;59801;-69
2023/09/24 07:25:41;;;;;;;7.00;1.90;;;;;;;26.42;45.93;100557.90;105622;1254;72491;-67
2023/09/24 07:28:29;;;;;;;6.30;1.70;;;;;;;26.82;44.10;100559.99;105852;1257;69508;-66
2023/09/24 07:31:21;;;;;;;6.00;1.70;;;;;;;27.05;43.42;100566.63;105941;1254;74293;-67
2023/09/24 07:34:13;;;;;;;5.80;1.70;;;;;;;27.35;42.47;100577.95;106024;1256;59330;-67
2023/09/24 07:37:03;;;;;;;6.00;1.80;;;;;;;27.51;41.52;100586.37;105807;1256;60524;-68
2023/09/24 07:40:07;;;;;;;6.10;1.50;;;;;;;27.67;40.60;100593.44;105759;1254;74327;-69
2023/09/24 07:42:58;;;;;;;5.60;1.30;;;;;;;27.76;39.84;100597.61;105690;1256;68297;-70
2023/09/24 07:45:47;;;;;;;6.70;2.10;;;;;;;27.55;39.89;100599.84;105962;1254;72125;-68
2023/09/24 07:48:39;;;;;;;14.00;8.00;;;;;;;27.46;40.09;100601.20;107470;1252;59269;-70
2023/09/24 07:51:31;;;;;;;6.20;1.90;;;;;;;27.16;40.12;100607.14;105923;1256;59600;-67
2023/09/24 07:54:19;;;;;;;5.90;1.50;;;;;;;25.75;42.26;100609.48;105751;1257;73953;-67
2023/09/24 07:57:09;;;;;;;6.20;1.80;;;;;;;25.06;44.47;100616.88;105849;1257;68060;-70
2023/09/24 08:00:02;;;;;;;6.50;1.70;;;;;;;25.52;44.10;100615.73;105822;1254;71858;-69
2023/09/24 08:03:04;;;;;;;6.50;1.90;;;;;;;25.81;43.00;100624.02;105978;1256;59487;-68
2023/09/24 08:05:53;;;;;;;7.40;2.10;;;;;;;25.99;42.44;100627.84;105928;1255;60782;-68
2023/09/24 08:08:48;;;;;;;7.30;1.70;;;;;;;26.38;42.22;100629.60;105989;1252;73752;-69
2023/09/24 08:11:52;;;;;;;5.50;1.50;;;;;;;26.81;40.31;100629.88;105911;1253;68678;-65
2023/09/24 08:14:43;;;;;;;5.70;1.50;;;;;;;26.83;39.92;100634.12;105699;1256;74023;-64
2023/09/24 08:17:32;;;;;;;7.60;1.60;;;;;;;27.11;39.54;100644.05;106008;1255;59179;-64
2023/09/24 08:20:20;;;;;;;6.50;1.10;;;;;;;27.11;38.97;100651.02;105739;1257;59765;-66
2023/09/24 08:23:09;;;;;;;5.30;1.30;;;;;;;26.50;39.99;100658.65;105552;1255;73752;-67
2023/09/24 08:25:57;;;;;;;6.30;1.30;;;;;;;26.71;40.46;100662.47;105850;1256;68419;-68
2023/09/24 08:28:45;;;;;;;4.80;1.40;;;;;;;27.07;39.56;100660.27;105858;1254;74059;-66
2023/09/24 08:31:34;;;;;;;8.10;1.40;;;;;;;26.82;39.64;100666.28;105765;1254;59448;-67
2023/09/24 08:34:23;;;;;;;5.80;1.20;;;;;;;26.23;40.71;100674.45;105963;1254;60977;-69
2023/09/24 08:37:11;;;;;;;5.50;1.20;;;;;;;25.51;41.63;100671.70;105726;1254;72655;-67
2023/09/24 08:39:59;;;;;;;6.60;1.30;;;;;;;24.81;42.88;100680.41;105849;1254;67297;-66
2023/09/24 08:42:50;;;;;;;6.10;1.60;;;;;;;24.32;43.94;100674.27;105852;1256;71717;-65
2023/09/24 08:45:41;;;;;;;4.90;1.00;;;;;;;23.97;44.44;100673.73;105847;1254;59714;-66
2023/09/24 08:48:29;;;;;;;5.30;1.00;;;;;;;23.62;45.20;100678.52;105875;1255;60140;-67
2023/09/24 08:51:17;;;;;;;5.10;1.20;;;;;;;23.33;45.69;100681.53;105926;1253;71293;-67
2023/09/24 08:54:06;;;;;;;5.70;1.30;;;;;;;23.20;46.29;100680.13;105792;1256;68720;-68
2023/09/24 08:56:55;;;;;;;6.00;1.20;;;;;;;23.16;46.38;100681.32;105801;1254;73321;-69
2023/09/24 08:59:43;;;;;;;6.40;1.20;;;;;;;23.13;46.78;100686.70;105943;1254;59310;-66
2023/09/24 09:02:31;;;;;;;5.50;1.00;;;;;;;23.34;46.96;100694.18;105888;1255;60593;-68
2023/09/24 09:05:23;;;;;;;7.70;1.30;;;;;;;23.94;46.63;100696.16;106089;1253;72929;-66
2023/09/24 09:08:12;;;;;;;5.50;1.10;;;;;;;24.74;45.07;100700.70;106037;1254;68415;-68
2023/09/24 09:11:00;;;;;;;5.50;1.10;;;;;;;25.72;42.82;100699.60;105817;1254;73292;-68
2023/09/24 09:13:49;;;;;;;5.60;1.20;;;;;;;26.49;40.58;100704.95;105846;1254;59255;-68
2023/09/24 09:16:57;;;;;;;4.80;1.00;;;;;;;27.27;38.87;100711.08;105924;1253;59804;-70
2023/09/24 09:19:52;;;;;;;5.10;0.80;;;;;;;27.82;36.63;100718.78;105818;1253;73632;-65
2023/09/24 09:22:46;;;;;;;3.90;0.70;;;;;;;27.85;36.24;100717.52;106515;1253;67260;-67
2023/09/24 09:25:33;;;;;;;4.80;0.80;;;;;;;27.51;36.70;100721.08;105980;1256;74139;-68
2023/09/24 09:28:27;;;;;;;4.70;0.80;;;;;;;27.59;37.46;100724.71;105877;1257;59259;-66
2023/09/24 09:31:15;;;;;;;4.70;0.90;;;;;;;26.89;38.49;100727.09;105993;1253;60871;-67
2023/09/24 09:34:06;;;;;;;5.40;1.10;;;;;;;26.17;39.98;100726.89;105907;1254;72803;-67
2023/09/24 09:37:20;;;;;;;5.40;1.20;;;;;;;25.47;41.45;100732.54;105972;1253;69104;-67
2023/09/24 09:40:12;;;;;;;6.10;1.00;;;;;;;24.64;43.67;100737.50;105745;1256;74392;-67
2023/09/24 09:43:01;;;;;;;4.50;1.00;;;;;;;23.94;45.11;100738.02;105799;1257;59400;-68
2023/09/24 09:45:53;;;;;;;5.50;0.90;;;;;;;23.46;46.56;100740.14;105811;1257;60435;-67
2023/09/24 09:48:55;;;;;;;5.70;1.00;;;;;;;23.32;47.20;100742.88;105622;1252;72211;-68
2023/09/24 09:51:48;;;;;;;5.00;1.00;;;;;;;23.32;47.66;100743.02;105836;1256;67096;-68
2023/09/24 09:54:39;;;;;;;5.80;1.10;;;;;;;24.05;46.04;100742.55;105831;1257;72976;-67
2023/09/24 09:57:33;;;;;;;4.40;1.10;;;;;;;24.15;45.12;100742.70;105863;1254;59343;-66
2023/09/24 10:00:21;;;;;;;4.90;1.10;;;;;;;25.07;42.00;100741.88;105662;1256;59928;-68
2023/09/24 10:03:11;;;;;;;5.70;1.10;;;;;;;25.75;40.52;100731.98;105787;1254;73217;-69
2023/09/24 10:06:02;;;;;;;5.20;0.90;;;;;;;27.02;38.99;100734.90;105608;1253;67654;-66
2023/09/24 10:08:50;;;;;;;6.20;0.90;;;;;;;28.31;36.65;100735.94;105890;1257;72963;-66
2023/09/24 10:11:40;;;;;;;5.10;1.00;;;;;;;28.86;34.50;100746.45;105728;1257;59255;-66
2023/09/24 10:14:42;;;;;;;4.30;0.90;;;;;;;29.60;32.70;100742.69;105821;1256;60888;-66
2023/09/24 10:17:31;;;;;;;5.40;1.00;;;;;;;30.16;31.61;100740.64;105802;1254;73764;-67
2023/09/24 10:20:19;;;;;;;5.80;1.00;;;;;;;30.54;30.64;100744.19;105881;1257;69348;-68
2023/09/24 10:23:33;;;;;;;5.80;1.00;;;;;;;30.99;29.74;100748.27;105562;1256;73301;-68
2023/09/24 10:27:13;;;;;;;4.60;0.90;;;;;;;31.25;29.11;100757.83;105652;1259;59263;-66
2023/09/24 10:30:03;;;;;;;3.90;0.80;;;;;;;31.13;29.48;100756.63;105222;1260;62198;-66
2023/09/24 10:32:52;;;;;;;6.00;1.10;;;;;;;31.35;29.07;100754.31;105300;1260;71488;-66
2023/09/24 10:36:29;;;;;;;4.50;0.80;;;;;;;31.43;29.01;100757.23;105226;1259;67290;-69
2023/09/24 10:39:17;;;;;;;4.40;0.90;;;;;;;31.38;29.20;100756.25;105047;1260;72100;-68
2023/09/24 10:42:15;;;;;;;4.60;1.00;;;;;;;31.64;28.65;100754.17;105323;1262;59324;-68
2023/09/24 10:45:06;;;;;;;4.80;1.00;;;;;;;32.03;28.42;100751.11;105562;1260;62092;-69
2023/09/24 10:47:55;;;;;;;6.30;1.00;;;;;;;32.36;27.82;100754.45;105483;1259;72227;-69
2023/09/24 10:50:44;;;;;;;4.40;0.80;;;;;;;32.41;27.71;100760.70;105380;1262;68405;-70
2023/09/24 10:53:33;;;;;;;5.40;1.00;;;;;;;31.38;28.57;100765.91;105514;1259;73566;-69
2023/09/24 10:56:21;;;;;;;5.20;1.10;;;;;;;30.76;28.82;100762.52;105418;1259;59475;-67
2023/09/24 10:59:09;;;;;;;5.70;1.00;;;;;;;30.94;28.59;100759.71;105357;1259;61972;-70
2023/09/24 11:01:57;;;;;;;5.40;1.00;;;;;;;31.27;28.30;100762.31;105692;1258;73947;-70
2023/09/24 11:04:46;;;;;;;5.70;1.00;;;;;;;31.50;27.94;100761.02;105181;1260;67247;-66
2023/09/24 11:07:34;;;;;;;5.00;0.90;;;;;;;31.81;27.73;100767.05;105658;1255;72079;-66
2023/09/24 11:10:25;;;;;;;6.10;0.90;;;;;;;31.83;26.39;100766.97;105900;1254;59342;-67
2023/09/24 11:13:13;;;;;;;6.20;1.10;;;;;;;31.89;26.95;100770.10;105489;1259;59888;-72
2023/09/24 11:16:03;;;;;;;5.20;1.00;;;;;;;31.23;27.33;100773.73;105881;1254;71359;-67
2023/09/24 11:18:51;;;;;;;5.50;1.10;;;;;;;29.81;29.12;100781.49;105937;1259;68239;-68
2023/09/24 11:21:39;;;;;;;5.20;1.10;;;;;;;28.42;31.31;100784.48;105825;1254;73188;-68
2023/09/24 11:24:27;;;;;;;5.60;0.90;;;;;;;28.06;31.27;100780.10;105631;1258;59348;-68
2023/09/24 11:27:18;;;;;;;5.20;1.00;;;;;;;28.04;29.49;100777.88;105801;1256;59691;-66
2023/09/24 11:30:07;;;;;;;5.40;1.10;;;;;;;28.17;28.92;100779.84;105815;1254;72707;-68
2023/09/24 11:32:55;;;;;;;5.40;1.00;;;;;;;28.25;29.56;100780.94;105894;1253;68228;-69
2023/09/24 11:35:45;;;;;;;5.00;1.10;;;;;;;28.29;29.69;100786.69;106195;1257;74210;-68
2023/09/24 11:38:36;;;;;;;5.20;1.20;;;;;;;27.87;30.07;100786.94;106043;1256;59253;-67
2023/09/24 11:41:24;;;;;;;5.80;1.20;;;;;;;26.90;31.34;100791.53;105805;1257;59970;-67
2023/09/24 11:44:12;;;;;;;6.20;1.10;;;;;;;26.71;32.21;100787.38;105788;1252;72701;-65
2023/09/24 11:47:01;;;;;;;6.60;1.40;;;;;;;26.78;32.35;100784.86;105581;1256;67053;-66
2023/09/24 11:49:49;;;;;;;6.40;1.30;;;;;;;26.38;32.91;100789.00;105841;1254;73070;-67
2023/09/24 11:52:40;;;;;;;6.40;1.10;;;;;;;26.10;33.19;100793.33;105801;1256;60569;-68
2023/09/24 11:55:28;;;;;;;7.20;1.40;;;;;;;26.03;33.81;100794.42;105843;1256;60550;-64
2023/09/24 11:58:17;;;;;;;6.10;1.20;;;;;;;25.33;34.44;100804.20;105808;1252;72904;-69
2023/09/24 12:01:09;;;;;;;6.80;1.50;;;;;;;24.70;35.48;100805.13;105783;1253;67070;-67
2023/09/24 12:03:57;;;;;;;6.50;1.50;;;;;;;24.31;36.85;100802.66;105703;1257;73224;-65
2023/09/24 12:06:45;;;;;;;7.50;1.90;;;;;;;23.81;38.37;100811.02;106071;1256;59609;-65
2023/09/24 12:09:34;;;;;;;8.80;3.70;;;;;;;23.28;40.11;100812.33;105744;1252;60429;-66
2023/09/24 12:12:22;;;;;;;9.60;4.00;;;;;;;22.74;41.42;100813.94;105735;1254;73826;-66
2023/09/24 12:15:13;;;;;;;7.70;1.60;;;;;;;22.25;42.72;100823.66;105804;1253;66383;-65
2023/09/24 12:18:06;;;;;;;6.40;1.60;;;;;;;21.94;43.77;100821.16;105762;1256;73095;-64
2023/09/24 12:20:56;;;;;;;5.60;1.30;;;;;;;21.65;44.58;100827.70;105792;1252;59402;-65
2023/09/24 12:23:46;;;;;;;8.90;1.60;;;;;;;21.26;45.66;100834.16;105773;1256;60833;-64
2023/09/24 12:26:34;;;;;;;7.00;1.60;;;;;;;20.90;46.61;100836.51;105739;1256;70970;-66
2023/09/24 12:29:22;;;;;;;7.10;1.40;;;;;;;20.77;47.19;100838.19;105883;1253;67332;-64
2023/09/24 12:32:10;;;;;;;6.90;1.40;;;;;;;20.70;47.71;100838.88;105684;1257;73002;-66
2023/09/24 12:34:59;;;;;;;6.00;1.30;;;;;;;20.55;47.35;100846.27;105976;1256;59155;-67
2023/09/24 12:37:47;;;;;;;6.70;1.40;;;;;;;20.44;47.33;100844.92;105950;1254;61654;-64
2023/09/24 12:40:35;;;;;;;7.10;1.50;;;;;;;20.37;47.33;100844.77;105996;1254;73568;-64
2023/09/24 12:43:24;;;;;;;6.90;1.40;;;;;;;20.39;47.19;100840.02;105962;1258;69623;-67
2023/09/24 12:46:12;;;;;;;7.20;1.60;;;;;;;20.37;46.87;100846.48;105861;1256;73109;-67
2023/09/24 12:49:01;;;;;;;6.40;1.40;;;;;;;20.29;46.87;100846.88;105807;1256;59243;-68
2023/09/24 12:51:49;;;;;;;7.10;1.60;;;;;;;20.17;47.13;100848.27;105801;1257;59719;-64
2023/09/24 12:54:39;;;;;;;6.80;1.70;;;;;;;20.14;47.28;100853.15;105630;1252;73589;-68
2023/09/24 12:57:27;;;;;;;5.90;1.50;;;;;;;20.05;47.53;100855.70;105607;1255;68407;-65
2023/09/24 13:00:16;;;;;;;6.50;1.30;;;;;;;19.95;48.62;100863.92;105638;1258;71243;-66